createdAt,value
2018-11-06T00:02:06.879Z,80.20
2018-11-06T00:04:39.934Z,81.30
2018-11-06T00:07:07.450Z,80.30
2018-11-06T00:09:34.907Z,81.40
2018-11-06T00:12:02.473Z,80.50
2018-11-06T00:14:30.109Z,81.80
2018-11-06T00:16:57.653Z,81.80
2018-11-06T00:19:25.130Z,81.60
2018-11-06T00:21:52.619Z,81.90
2018-11-06T00:24:20.129Z,82.00
2018-11-06T00:26:47.691Z,82.00
2018-11-06T00:29:15.167Z,81.80
2018-11-06T00:31:44.359Z,81.70
2018-11-06T00:34:14.944Z,82.00
2018-11-06T00:36:57.261Z,81.90
2018-11-06T00:39:36.849Z,82.10
2018-11-06T00:42:04.514Z,82.20
2018-11-06T00:44:32.074Z,82.30
2018-11-06T00:46:59.511Z,82.30
2018-11-06T00:49:26.975Z,82.50
2018-11-06T00:51:54.467Z,82.30
2018-11-06T00:54:21.902Z,82.20
2018-11-06T00:56:49.394Z,82.10
2018-11-06T00:59:16.824Z,82.40
2018-11-06T01:01:44.260Z,82.20
2018-11-06T01:04:13.378Z,81.70
2018-11-06T01:06:40.863Z,81.40
2018-11-06T01:09:11.759Z,81.40
2018-11-06T01:11:39.872Z,81.60
2018-11-06T01:14:07.787Z,81.60
2018-11-06T01:16:35.374Z,82.00
2018-11-06T01:19:02.874Z,82.20
2018-11-06T01:21:30.860Z,82.00
2018-11-06T01:23:58.358Z,82.00
2018-11-06T01:26:25.916Z,82.10
2018-11-06T01:28:53.400Z,82.40
2018-11-06T01:31:20.859Z,82.50
2018-11-06T01:33:48.455Z,82.60
2018-11-06T01:36:15.855Z,82.80
2018-11-06T01:38:43.328Z,82.80
2018-11-06T01:41:10.897Z,82.90
2018-11-06T01:43:38.348Z,82.50
2018-11-06T01:46:05.799Z,82.20
2018-11-06T01:48:33.328Z,82.20
2018-11-06T01:51:01.598Z,82.00
2018-11-06T01:53:29.055Z,81.90
2018-11-06T01:55:56.574Z,81.90
2018-11-06T01:58:24.027Z,81.70
2018-11-06T02:00:51.609Z,82.60
2018-11-06T02:03:19.087Z,82.30
2018-11-06T02:05:46.538Z,82.50
2018-11-06T02:08:14.238Z,82.40
2018-11-06T02:10:41.690Z,82.50
2018-11-06T02:13:09.102Z,82.50
2018-11-06T02:15:36.500Z,82.30
2018-11-06T02:18:04.426Z,82.20
2018-11-06T02:20:31.982Z,82.60
2018-11-06T02:22:59.386Z,82.40
2018-11-06T02:25:27.017Z,82.20
2018-11-06T02:27:54.494Z,82.10
2018-11-06T02:30:21.874Z,82.30
2018-11-06T02:32:49.300Z,82.70
2018-11-06T02:35:16.939Z,82.60
2018-11-06T02:37:44.339Z,83.40
2018-11-06T02:40:13.815Z,83.80
2018-11-06T02:42:41.642Z,83.30
2018-11-06T02:45:09.997Z,83.10
2018-11-06T02:47:37.469Z,83.20
2018-11-06T02:50:05.577Z,83.40
2018-11-06T02:52:33.024Z,83.30
2018-11-06T02:55:00.546Z,83.50
2018-11-06T02:57:27.980Z,83.30
2018-11-06T02:59:55.451Z,82.80
2018-11-06T03:02:22.931Z,83.00
2018-11-06T03:04:50.515Z,82.80
2018-11-06T03:07:18.205Z,82.90
2018-11-06T03:09:45.681Z,82.90
2018-11-06T03:12:13.126Z,83.00
2018-11-06T03:14:40.621Z,83.40
2018-11-06T03:17:08.448Z,83.40
2018-11-06T03:19:36.090Z,83.50
2018-11-06T03:22:03.522Z,83.80
2018-11-06T03:24:31.113Z,83.80
2018-11-06T03:26:58.601Z,84.10
2018-11-06T03:29:26.002Z,84.10
2018-11-06T03:31:53.476Z,84.30
2018-11-06T03:34:21.162Z,84.30
2018-11-06T03:36:48.571Z,84.00
2018-11-06T03:39:16.007Z,84.40
2018-11-06T03:41:43.543Z,84.10
2018-11-06T03:44:10.945Z,84.70
2018-11-06T03:46:38.414Z,84.40
2018-11-06T03:49:05.870Z,84.70
2018-11-06T03:51:33.517Z,85.10
2018-11-06T03:54:01.095Z,85.70
2018-11-06T03:56:28.538Z,85.60
2018-11-06T03:58:55.997Z,85.80
2018-11-06T04:01:23.665Z,86.40
2018-11-06T04:03:51.118Z,86.70
2018-11-06T04:06:18.627Z,86.50
2018-11-06T04:08:46.037Z,86.70
2018-11-06T04:11:13.435Z,87.10
2018-11-06T04:13:41.493Z,86.80
2018-11-06T04:16:08.971Z,87.00
2018-11-06T04:18:36.422Z,87.60
2018-11-06T04:21:04.001Z,87.00
2018-11-06T04:23:31.487Z,86.90
2018-11-06T04:25:58.892Z,87.00
2018-11-06T04:28:26.790Z,87.10
2018-11-06T04:30:54.173Z,87.30
2018-11-06T04:33:21.665Z,87.30
2018-11-06T04:35:49.078Z,87.30
2018-11-06T04:38:16.514Z,87.60
2018-11-06T04:40:44.004Z,87.40
2018-11-06T04:43:11.533Z,87.50
2018-11-06T04:45:39.003Z,87.50
2018-11-06T04:48:06.458Z,87.80
2018-11-06T04:50:34.069Z,88.20
2018-11-06T04:53:01.536Z,88.70
2018-11-06T04:55:29.019Z,88.10
2018-11-06T04:57:56.458Z,88.60
2018-11-06T05:00:24.047Z,88.70
2018-11-06T05:02:51.523Z,89.40
2018-11-06T05:05:18.982Z,88.40
2018-11-06T05:07:46.404Z,88.40
2018-11-06T05:10:14.419Z,88.40
2018-11-06T05:12:41.938Z,88.70
2018-11-06T05:15:11.218Z,88.60
2018-11-06T05:17:38.699Z,88.40
2018-11-06T05:20:20.114Z,88.80
2018-11-06T05:22:47.606Z,88.60
2018-11-06T05:25:15.361Z,88.80
2018-11-06T05:27:42.830Z,89.00
2018-11-06T05:30:12.246Z,89.30
2018-11-06T05:32:41.067Z,89.30
2018-11-06T05:35:09.269Z,88.00
2018-11-06T05:37:36.931Z,88.20
2018-11-06T05:40:15.797Z,88.00
2018-11-06T05:42:43.483Z,87.90
2018-11-06T05:45:12.071Z,88.20
2018-11-06T05:47:39.522Z,87.80
2018-11-06T05:50:07.146Z,88.40
2018-11-06T05:52:35.273Z,88.10
2018-11-06T05:55:02.827Z,87.70
2018-11-06T05:57:30.249Z,87.70
2018-11-06T05:59:57.692Z,87.70
2018-11-06T06:02:25.134Z,87.80
2018-11-06T06:04:52.567Z,87.70
2018-11-06T06:07:20.094Z,88.10
2018-11-06T06:09:47.626Z,88.20
2018-11-06T06:12:15.133Z,88.40
2018-11-06T06:14:42.605Z,88.40
2018-11-06T06:17:10.188Z,88.40
2018-11-06T06:19:37.604Z,88.60
2018-11-06T06:22:05.215Z,88.80
2018-11-06T06:24:32.685Z,88.70
2018-11-06T06:27:01.849Z,89.10
2018-11-06T06:29:29.271Z,89.20
2018-11-06T06:31:56.861Z,89.40
2018-11-06T06:34:24.379Z,89.30
2018-11-06T06:36:51.843Z,89.50
2018-11-06T06:39:19.389Z,89.60
2018-11-06T06:41:46.857Z,89.80
2018-11-06T06:44:14.396Z,90.00
2018-11-06T06:46:42.068Z,89.70
2018-11-06T06:49:10.291Z,89.40
2018-11-06T06:51:38.028Z,89.90
2018-11-06T06:54:05.664Z,89.30
2018-11-06T06:56:33.030Z,89.00
2018-11-06T06:59:00.568Z,89.70
2018-11-06T07:01:28.131Z,89.80
2018-11-06T07:03:55.711Z,90.00
2018-11-06T07:06:23.451Z,90.00
2018-11-06T07:08:51.101Z,89.80
2018-11-06T07:11:18.616Z,89.90
2018-11-06T07:13:46.458Z,90.10
2018-11-06T07:16:14.247Z,90.30
2018-11-06T07:18:41.929Z,90.30
2018-11-06T07:21:09.955Z,90.30
2018-11-06T07:23:37.425Z,90.40
2018-11-06T07:26:05.280Z,90.40
2018-11-06T07:28:33.193Z,90.40
2018-11-06T07:31:01.995Z,90.30
2018-11-06T07:33:29.603Z,90.40
2018-11-06T07:35:57.325Z,90.40
2018-11-06T07:38:25.654Z,90.50
2018-11-06T07:40:53.323Z,90.60
2018-11-06T07:43:22.234Z,90.50
2018-11-06T07:45:51.086Z,90.70
2018-11-06T07:48:19.196Z,90.30
2018-11-06T07:50:47.003Z,90.40
2018-11-06T07:53:16.188Z,90.40
2018-11-06T07:55:53.131Z,90.60
2018-11-06T07:58:22.260Z,91.10
2018-11-06T08:00:50.863Z,90.80
2018-11-06T08:03:18.491Z,90.80
2018-11-06T08:05:47.048Z,90.70
2018-11-06T08:08:15.072Z,90.60
2018-11-06T08:10:44.914Z,90.50
2018-11-06T08:13:15.422Z,90.80
2018-11-06T08:15:43.434Z,90.60
2018-11-06T08:18:11.103Z,90.60
2018-11-06T08:20:39.773Z,90.50
2018-11-06T08:23:08.593Z,90.50
2018-11-06T08:25:43.400Z,90.60
2018-11-06T08:28:15.163Z,90.60
2018-11-06T08:30:44.111Z,90.70
2018-11-06T08:33:12.424Z,90.50
2018-11-06T08:35:40.252Z,90.40
2018-11-06T08:38:09.963Z,90.40
2018-11-06T08:40:37.738Z,90.20
2018-11-06T08:43:13.834Z,90.00
2018-11-06T08:45:41.950Z,90.30
2018-11-06T08:48:17.871Z,90.30
2018-11-06T08:50:46.533Z,90.10
2018-11-06T08:53:14.754Z,90.20
2018-11-06T08:55:42.754Z,90.20
2018-11-06T08:58:12.036Z,90.20
2018-11-06T09:00:39.847Z,90.40
2018-11-06T09:03:07.475Z,90.00
2018-11-06T09:05:35.091Z,90.30
2018-11-06T09:08:03.138Z,90.00
2018-11-06T09:10:30.968Z,90.00
2018-11-06T09:13:00.273Z,89.20
2018-11-06T09:15:27.852Z,90.10
2018-11-06T09:17:55.649Z,89.00
2018-11-06T09:20:29.027Z,89.00
2018-11-06T09:22:59.433Z,89.10
2018-11-06T09:25:28.628Z,89.10
2018-11-06T09:27:57.241Z,88.30
2018-11-06T09:30:25.862Z,88.40
2018-11-06T09:32:53.467Z,88.70
2018-11-06T09:35:21.703Z,88.20
2018-11-06T09:37:49.958Z,88.00
2018-11-06T09:40:19.510Z,88.70
2018-11-06T09:42:49.732Z,88.90
2018-11-06T09:45:17.451Z,88.90
2018-11-06T09:47:45.790Z,89.00
2018-11-06T09:50:16.794Z,88.50
2018-11-06T09:52:45.779Z,89.00
2018-11-06T09:55:13.770Z,88.80
2018-11-06T09:57:41.435Z,88.90
2018-11-06T10:00:14.078Z,88.80
2018-11-06T10:02:42.243Z,88.90
2018-11-06T10:05:11.475Z,88.20
2018-11-06T10:07:40.719Z,87.90
2018-11-06T10:10:10.928Z,87.40
2018-11-06T10:12:39.404Z,87.10
2018-11-06T10:15:09.317Z,86.70
2018-11-06T10:17:38.314Z,87.30
2018-11-06T10:20:08.168Z,87.30
2018-11-06T10:22:43.841Z,87.00
2018-11-06T10:25:13.214Z,86.70
2018-11-06T10:27:42.167Z,86.90
2018-11-06T10:30:12.987Z,86.90
2018-11-06T10:32:41.136Z,86.60
2018-11-06T10:35:13.734Z,85.40
2018-11-06T10:37:41.466Z,85.70
2018-11-06T10:40:13.182Z,85.40
2018-11-06T10:42:41.650Z,85.60
2018-11-06T10:45:10.645Z,86.00
2018-11-06T10:47:40.083Z,85.80
2018-11-06T10:50:09.042Z,85.20
2018-11-06T10:52:39.195Z,84.10
2018-11-06T10:55:08.424Z,84.00
2018-11-06T10:57:37.979Z,84.00
2018-11-06T11:00:12.351Z,83.10
2018-11-06T11:02:46.007Z,83.70
2018-11-06T11:05:14.333Z,83.20
2018-11-06T11:07:42.424Z,83.30
2018-11-06T11:10:11.011Z,83.40
2018-11-06T11:12:38.920Z,82.80
2018-11-06T11:15:08.004Z,83.20
2018-11-06T11:17:35.906Z,83.10
2018-11-06T11:20:06.187Z,83.30
2018-11-06T11:22:34.903Z,83.10
2018-11-06T11:25:03.410Z,83.50
2018-11-06T11:27:31.714Z,82.30
2018-11-06T11:30:02.282Z,82.10
2018-11-06T11:35:12.888Z,82.40
2018-11-06T11:37:45.738Z,81.60
2018-11-06T11:40:14.963Z,81.60
2018-11-06T11:42:43.838Z,81.30
2018-11-06T11:45:17.583Z,80.90
2018-11-06T11:47:45.407Z,81.80
2018-11-06T11:50:17.005Z,80.90
2018-11-06T11:52:45.272Z,79.80
2018-11-06T11:55:17.555Z,79.80
2018-11-06T11:57:45.853Z,80.20
2018-11-06T12:00:14.968Z,79.70
2018-11-06T12:02:42.493Z,79.00
2018-11-06T12:05:17.428Z,79.30
2018-11-06T12:07:45.064Z,79.20
2018-11-06T12:10:14.187Z,79.40
2018-11-06T12:12:42.177Z,79.60
2018-11-06T12:15:13.101Z,79.50
2018-11-06T12:17:41.372Z,79.50
2018-11-06T12:20:10.056Z,78.70
2018-11-06T12:22:38.233Z,79.00
2018-11-06T12:25:07.065Z,78.80
2018-11-06T12:27:34.599Z,78.50
2018-11-06T12:30:02.330Z,78.50
2018-11-06T12:32:30.717Z,78.20
2018-11-06T12:34:58.246Z,77.60
2018-11-06T12:37:25.885Z,77.70
2018-11-06T12:39:53.489Z,78.10
2018-11-06T12:42:21.266Z,77.10
2018-11-06T12:44:48.967Z,77.10
2018-11-06T12:47:16.642Z,76.80
2018-11-06T12:49:44.397Z,77.00
2018-11-06T12:52:12.077Z,76.50
2018-11-06T12:54:40.346Z,76.40
2018-11-06T12:57:08.520Z,76.30
2018-11-06T12:59:36.180Z,76.20
2018-11-06T13:02:04.128Z,76.50
2018-11-06T13:04:32.231Z,76.10
2018-11-06T13:06:59.981Z,76.00
2018-11-06T13:09:27.648Z,76.00
2018-11-06T13:11:55.436Z,75.50
2018-11-06T13:14:27.379Z,75.90
2018-11-06T13:16:55.058Z,75.80
2018-11-06T13:19:23.336Z,75.60
2018-11-06T13:21:51.398Z,75.40
2018-11-06T13:24:20.064Z,75.40
2018-11-06T13:26:47.792Z,75.50
2018-11-06T13:29:15.511Z,75.30
2018-11-06T13:31:43.185Z,75.20
2018-11-06T13:36:48.684Z,75.10
2018-11-06T13:39:17.056Z,75.00
2018-11-06T13:41:44.670Z,74.90
2018-11-06T13:44:14.730Z,74.70
2018-11-06T13:46:48.391Z,75.00
2018-11-06T13:49:16.769Z,74.90
2018-11-06T13:51:44.875Z,74.90
2018-11-06T13:54:16.998Z,75.10
2018-11-06T13:56:45.730Z,75.30
2018-11-06T13:59:14.703Z,75.00
2018-11-06T14:01:47.268Z,75.20
2018-11-06T14:04:16.096Z,74.90
2018-11-06T14:06:45.867Z,75.10
2018-11-06T14:09:14.614Z,75.00
2018-11-06T14:11:47.148Z,75.20
2018-11-06T14:14:20.927Z,75.50
2018-11-06T14:16:49.221Z,75.10
2018-11-06T14:19:16.979Z,75.80
2018-11-06T14:21:45.266Z,75.90
2018-11-06T14:24:19.579Z,75.80
2018-11-06T14:26:47.616Z,76.00
2018-11-06T14:29:17.817Z,75.80
2018-11-06T14:31:48.772Z,76.00
2018-11-06T14:34:22.229Z,76.10
2018-11-06T14:36:50.545Z,76.40
2018-11-06T14:39:23.299Z,76.70
2018-11-06T14:41:51.987Z,76.70
2018-11-06T14:44:20.270Z,76.80
2018-11-06T14:49:27.826Z,77.40
2018-11-06T14:51:55.458Z,77.20
2018-11-06T14:54:24.390Z,77.40
2018-11-06T14:56:53.958Z,77.70
2018-11-06T14:59:22.947Z,77.80
2018-11-06T15:01:51.398Z,77.80
2018-11-06T15:04:19.307Z,77.70
2018-11-06T15:06:46.942Z,78.00
2018-11-06T15:09:16.520Z,77.90
2018-11-06T15:11:45.708Z,78.50
2018-11-06T15:14:18.903Z,78.30
2018-11-06T15:16:46.614Z,78.50
2018-11-06T15:19:20.607Z,78.80
2018-11-06T15:21:48.391Z,78.60
2018-11-06T15:24:22.044Z,79.00
2018-11-06T15:26:50.120Z,79.20
2018-11-06T15:29:18.915Z,79.40
2018-11-06T15:31:48.358Z,79.50
2018-11-06T15:34:16.644Z,79.50
2018-11-06T15:36:48.842Z,79.70
2018-11-06T15:39:18.274Z,80.00
2018-11-06T15:41:47.089Z,80.00
2018-11-06T15:44:18.780Z,80.30
2018-11-06T15:46:49.016Z,80.60
2018-11-06T15:49:18.381Z,80.70
2018-11-06T15:51:46.030Z,80.90
2018-11-06T15:54:14.056Z,80.90
2018-11-06T15:56:43.584Z,81.30
2018-11-06T15:59:13.691Z,81.50
2018-11-06T16:01:44.125Z,81.50
2018-11-06T16:04:11.931Z,81.40
2018-11-06T16:06:41.440Z,81.50
2018-11-06T16:09:09.725Z,81.50
2018-11-06T16:11:37.354Z,81.80
2018-11-06T16:14:05.718Z,81.80
2018-11-06T16:16:35.682Z,82.10
2018-11-06T16:19:04.970Z,82.20
2018-11-06T16:21:34.579Z,82.50
2018-11-06T16:24:04.745Z,82.60
2018-11-06T16:26:32.294Z,82.80
2018-11-06T16:29:00.714Z,82.90
2018-11-06T16:31:28.912Z,83.20
2018-11-06T16:33:56.530Z,83.20
2018-11-06T16:36:25.037Z,83.00
2018-11-06T16:38:52.797Z,83.40
2018-11-06T16:41:20.987Z,83.60
2018-11-06T16:43:48.523Z,83.80
2018-11-06T16:46:16.838Z,84.20
2018-11-06T16:48:45.495Z,83.90
2018-11-06T16:51:13.218Z,83.90
2018-11-06T16:53:41.506Z,84.10
2018-11-06T16:56:14.164Z,83.90
2018-11-06T16:58:42.304Z,84.20
2018-11-06T17:01:10.305Z,83.90
2018-11-06T17:03:44.063Z,84.20
2018-11-06T17:06:17.483Z,84.00
2018-11-06T17:08:45.693Z,84.30
2018-11-06T17:11:13.250Z,84.50
2018-11-06T17:13:40.954Z,84.30
2018-11-06T17:16:08.684Z,84.00
2018-11-06T17:18:38.474Z,84.00
2018-11-06T17:21:07.585Z,84.10
2018-11-06T17:23:36.206Z,84.10
2018-11-06T17:26:08.034Z,84.10
2018-11-06T17:28:37.919Z,84.10
2018-11-06T17:34:27.642Z,84.70
2018-11-06T17:37:02.000Z,84.80
2018-11-06T17:39:30.152Z,84.90
2018-11-06T17:41:59.897Z,85.20
2018-11-06T17:44:28.762Z,85.30
2018-11-06T17:47:00.365Z,85.60
2018-11-06T17:49:28.833Z,85.70
2018-11-06T17:51:57.018Z,85.80
2018-11-06T17:54:25.923Z,85.90
2018-11-06T17:56:54.135Z,85.50
2018-11-06T17:59:23.359Z,85.40
2018-11-06T18:01:51.864Z,85.50
2018-11-06T18:04:24.135Z,85.40
2018-11-06T18:06:56.784Z,85.40
2018-11-06T18:09:26.349Z,85.40
2018-11-06T18:11:55.241Z,85.20
2018-11-06T18:14:22.936Z,85.30
2018-11-06T18:17:04.102Z,85.40
2018-11-06T18:19:31.932Z,85.40
2018-11-06T18:22:12.803Z,85.40
2018-11-06T18:24:44.778Z,85.40
2018-11-06T18:27:13.894Z,85.30
2018-11-06T18:29:42.137Z,85.20
2018-11-06T18:32:09.733Z,85.10
2018-11-06T18:34:37.155Z,85.50
2018-11-06T18:37:05.424Z,85.40
2018-11-06T18:39:40.645Z,85.60
2018-11-06T18:42:10.172Z,85.60
2018-11-06T18:44:37.751Z,85.80
2018-11-06T18:47:07.057Z,85.80
2018-11-06T18:49:35.079Z,85.80
2018-11-06T18:52:03.699Z,85.70
2018-11-06T18:54:32.313Z,85.70
2018-11-06T18:57:00.940Z,85.80
2018-11-06T18:59:30.700Z,85.80
2018-11-06T19:02:03.075Z,85.60
2018-11-06T19:04:30.896Z,85.80
2018-11-06T19:06:59.264Z,85.80
2018-11-06T19:09:32.103Z,85.80
2018-11-06T19:12:00.367Z,85.70
2018-11-06T19:14:27.959Z,85.90
2018-11-06T19:16:55.843Z,85.80
2018-11-06T19:19:26.848Z,86.00
2018-11-06T19:21:56.143Z,86.00
2018-11-06T19:24:23.938Z,85.90
2018-11-06T19:26:51.503Z,86.00
2018-11-06T19:29:19.525Z,85.90
2018-11-06T19:31:52.314Z,86.00
2018-11-06T19:34:20.061Z,85.80
2018-11-06T19:36:52.234Z,85.80
2018-11-06T19:39:20.713Z,86.10
2018-11-06T19:41:48.851Z,86.20
2018-11-06T19:44:20.736Z,86.30
2018-11-06T19:46:49.861Z,86.20
2018-11-06T19:49:18.134Z,86.50
2018-11-06T19:51:45.740Z,86.50
2018-11-06T19:54:14.274Z,86.60
2018-11-06T19:56:42.146Z,86.50
2018-11-06T19:59:11.244Z,86.60
2018-11-06T20:01:41.097Z,86.60
2018-11-06T20:04:09.697Z,86.40
2018-11-06T20:06:37.772Z,86.10
2018-11-06T20:09:07.551Z,86.30
2018-11-06T20:11:36.536Z,86.30
2018-11-06T20:14:04.512Z,86.40
2018-11-06T20:16:32.983Z,86.30
2018-11-06T20:19:00.803Z,86.10
2018-11-06T20:21:28.775Z,86.20
2018-11-06T20:23:56.853Z,86.60
2018-11-06T20:26:35.418Z,86.20
2018-11-06T20:29:03.411Z,86.10
2018-11-06T20:31:31.650Z,86.20
2018-11-06T20:34:01.223Z,86.10
2018-11-06T20:36:32.167Z,86.20
2018-11-06T20:39:00.211Z,86.10
2018-11-06T20:41:27.862Z,86.10
2018-11-06T20:43:55.680Z,86.10
2018-11-06T20:46:29.716Z,86.00
2018-11-06T20:48:58.661Z,86.10
2018-11-06T20:51:26.867Z,86.10
2018-11-06T20:53:57.143Z,86.10
2018-11-06T20:56:24.718Z,86.10
2018-11-06T20:58:52.422Z,86.10
2018-11-06T21:01:20.162Z,86.20
2018-11-06T21:03:48.159Z,86.40
2018-11-06T21:06:26.667Z,86.10
2018-11-06T21:08:59.946Z,86.00
2018-11-06T21:11:27.467Z,86.10
2018-11-06T21:13:55.235Z,86.10
2018-11-06T21:16:24.103Z,86.20
2018-11-06T21:18:52.247Z,86.20
2018-11-06T21:21:19.787Z,86.30
2018-11-06T21:23:47.458Z,86.20
2018-11-06T21:26:15.231Z,86.20
2018-11-06T21:28:42.523Z,86.40
2018-11-06T21:31:10.043Z,86.40
2018-11-06T21:33:37.581Z,86.10
2018-11-06T21:36:05.105Z,86.20
2018-11-06T21:38:32.718Z,86.20
2018-11-06T21:41:00.943Z,86.10
2018-11-06T21:43:28.432Z,86.30
2018-11-06T21:45:56.015Z,86.30
2018-11-06T21:48:23.511Z,86.30
2018-11-06T21:50:52.261Z,86.30
2018-11-06T21:53:19.772Z,86.30
2018-11-06T21:55:48.475Z,86.20
2018-11-06T21:58:15.967Z,86.10
2018-11-06T22:00:43.499Z,86.40
2018-11-06T22:03:10.970Z,86.20
2018-11-06T22:05:39.158Z,86.20
2018-11-06T22:08:06.731Z,86.10
2018-11-06T22:10:35.154Z,86.80
2018-11-06T22:13:02.739Z,86.70
2018-11-06T22:15:30.127Z,86.40
2018-11-06T22:17:57.582Z,86.70
2018-11-06T22:20:25.081Z,86.70
2018-11-06T22:22:52.618Z,86.80
2018-11-06T22:25:20.162Z,86.70
2018-11-06T22:27:47.636Z,86.80
2018-11-06T22:30:15.893Z,87.00
2018-11-06T22:32:43.904Z,86.90
2018-11-06T22:35:12.441Z,86.80
2018-11-06T22:37:40.127Z,86.60
2018-11-06T22:40:08.147Z,86.60
2018-11-06T22:42:35.635Z,86.60
2018-11-06T22:45:03.207Z,86.50
2018-11-06T22:47:30.669Z,86.70
2018-11-06T22:49:58.097Z,86.50
2018-11-06T22:52:25.656Z,87.30
2018-11-06T22:54:54.468Z,86.60
2018-11-06T22:57:22.410Z,86.70
2018-11-06T22:59:49.868Z,86.70
2018-11-06T23:02:17.318Z,86.60
2018-11-06T23:04:45.527Z,86.60
2018-11-06T23:07:18.859Z,86.50
2018-11-06T23:09:46.386Z,86.40
2018-11-06T23:12:13.814Z,86.80
2018-11-06T23:14:41.349Z,86.60
2018-11-06T23:17:08.887Z,86.60
2018-11-06T23:19:36.418Z,86.70
2018-11-06T23:22:04.463Z,86.70
2018-11-06T23:24:31.904Z,87.10
2018-11-06T23:26:59.434Z,86.60
2018-11-06T23:29:26.886Z,86.40
2018-11-06T23:31:54.370Z,86.30
2018-11-06T23:34:21.938Z,86.20
2018-11-06T23:36:49.418Z,86.50
2018-11-06T23:39:16.859Z,86.60
2018-11-06T23:41:44.380Z,85.90
2018-11-06T23:44:11.815Z,85.80
2018-11-06T23:46:39.234Z,85.80
2018-11-06T23:49:06.702Z,86.00
2018-11-06T23:51:34.178Z,86.10
2018-11-06T23:54:01.643Z,86.00
2018-11-06T23:56:29.263Z,85.90
2018-11-06T23:58:56.743Z,85.60
